Time,TemperatureF,DewpointF,PressureIn,WindDirection,WindDirectionDegrees,WindSpeedMPH,WindSpeedGustMPH,Humidity,HourlyPrecipIn,Conditions,Clouds,dailyrainin,SoftwareType,DateUTC
2013-03-08 00:13:00,32.4,29.0,30.39,NNW,329,0.0,0.0,86,0.00,,,0.00,weatherlink.com 1.10,2013-03-08 05:13:00,
2013-03-08 00:28:00,32.2,29.0,30.39,NNW,329,0.0,0.0,87,0.00,,,0.00,weatherlink.com 1.10,2013-03-08 05:28:00,
2013-03-08 00:43:00,32.3,29.0,30.39,NNW,329,0.0,0.0,88,0.00,,,0.00,weatherlink.com 1.10,2013-03-08 05:43:00,
2013-03-08 00:58:00,32.3,29.0,30.39,NNW,329,0.0,0.0,87,0.00,,,0.00,weatherlink.com 1.10,2013-03-08 05:58:00,
2013-03-08 01:13:00,32.1,29.0,30.39,NNW,329,0.0,0.0,87,0.00,,,0.00,weatherlink.com 1.10,2013-03-08 06:13:00,
2013-03-08 01:28:00,31.6,28.0,30.40,NNW,329,0.0,0.0,87,0.00,,,0.00,weatherlink.com 1.10,2013-03-08 06:28:00,
2013-03-08 01:43:00,31.1,28.0,30.40,NNW,329,0.0,0.0,88,0.00,,,0.00,weatherlink.com 1.10,2013-03-08 06:43:00,
2013-03-08 01:58:00,30.7,28.0,30.41,NNW,329,0.0,0.0,89,0.00,,,0.00,weatherlink.com 1.10,2013-03-08 06:58:00,
2013-03-08 02:13:00,30.4,28.0,30.40,NNW,329,0.0,0.0,89,0.00,,,0.00,weatherlink.com 1.10,2013-03-08 07:13:00,
2013-03-08 02:28:00,30.2,28.0,30.41,NNW,329,0.0,0.0,90,0.00,,,0.00,weatherlink.com 1.10,2013-03-08 07:28:00,
2013-03-08 02:43:00,29.7,27.0,30.41,NNW,329,0.0,0.0,90,0.00,,,0.00,weatherlink.com 1.10,2013-03-08 07:43:00,
2013-03-08 02:58:00,29.5,27.0,30.40,NNW,329,0.0,0.0,90,0.00,,,0.00,weatherlink.com 1.10,2013-03-08 07:58:00,
2013-03-08 03:13:00,29.4,27.0,30.41,NNW,329,0.0,0.0,90,0.00,,,0.00,weatherlink.com 1.10,2013-03-08 08:13:00,
2013-03-08 03:28:00,29.3,27.0,30.40,NNW,329,0.0,0.0,90,0.00,,,0.00,weatherlink.com 1.10,2013-03-08 08:28:00,
2013-03-08 03:43:00,29.2,27.0,30.40,NNW,329,0.0,0.0,90,0.00,,,0.00,weatherlink.com 1.10,2013-03-08 08:43:00,
2013-03-08 03:58:00,28.9,27.0,30.40,NNW,329,0.0,0.0,91,0.00,,,0.00,weatherlink.com 1.10,2013-03-08 08:58:00,
2013-03-08 04:13:00,28.6,26.0,30.41,NNW,329,0.0,0.0,91,0.00,,,0.00,weatherlink.com 1.10,2013-03-08 09:13:00,
2013-03-08 04:28:00,28.2,26.0,30.41,NNW,329,0.0,0.0,92,0.00,,,0.00,weatherlink.com 1.10,2013-03-08 09:28:00,
2013-03-08 04:43:00,27.9,26.0,30.41,NNW,329,0.0,0.0,92,0.00,,,0.00,weatherlink.com 1.10,2013-03-08 09:43:00,
2013-03-08 04:58:00,27.7,26.0,30.42,NNW,329,0.0,0.0,92,0.00,,,0.00,weatherlink.com 1.10,2013-03-08 09:58:00,
2013-03-08 05:13:00,27.5,26.0,30.42,NNW,329,0.0,0.0,92,0.00,,,0.00,weatherlink.com 1.10,2013-03-08 10:13:00,
2013-03-08 05:29:00,27.2,26.0,30.42,NNW,329,0.0,0.0,93,0.00,,,0.00,weatherlink.com 1.10,2013-03-08 10:29:00,
2013-03-08 05:44:00,27.1,25.0,30.43,NNW,329,0.0,0.0,93,0.00,,,0.00,weatherlink.com 1.10,2013-03-08 10:44:00,
2013-03-08 05:59:00,26.9,25.0,30.44,NNW,329,0.0,0.0,93,0.00,,,0.00,weatherlink.com 1.10,2013-03-08 10:59:00,
2013-03-08 06:14:00,26.9,25.0,30.44,NNW,329,0.0,0.0,93,0.00,,,0.00,weatherlink.com 1.10,2013-03-08 11:14:00,
2013-03-08 06:29:00,26.8,25.0,30.45,NNW,329,0.0,0.0,92,0.00,,,0.00,weatherlink.com 1.10,2013-03-08 11:29:00,
2013-03-08 06:44:00,26.6,25.0,30.46,NNW,329,0.0,0.0,93,0.00,,,0.00,weatherlink.com 1.10,2013-03-08 11:44:00,
2013-03-08 06:59:00,26.4,25.0,30.47,NNW,329,0.0,0.0,93,0.00,,,0.00,weatherlink.com 1.10,2013-03-08 11:59:00,
2013-03-08 07:14:00,26.3,25.0,30.47,NNW,329,0.0,0.0,93,0.00,,,0.00,weatherlink.com 1.10,2013-03-08 12:14:00,
2013-03-08 07:29:00,26.6,25.0,30.47,NNW,329,0.0,0.0,93,0.00,,,0.00,weatherlink.com 1.10,2013-03-08 12:29:00,
2013-03-08 07:44:00,27.0,25.0,30.47,NNW,329,0.0,0.0,93,0.00,,,0.00,weatherlink.com 1.10,2013-03-08 12:44:00,
2013-03-08 07:59:00,27.4,26.0,30.47,NNW,329,0.0,0.0,93,0.00,,,0.00,weatherlink.com 1.10,2013-03-08 12:59:00,
2013-03-08 08:14:00,27.8,26.0,30.47,NNW,329,0.0,1.0,93,0.00,,,0.00,weatherlink.com 1.10,2013-03-08 13:14:00,
2013-03-08 08:29:00,28.6,27.0,30.47,NNW,329,0.0,0.0,92,0.00,,,0.00,weatherlink.com 1.10,2013-03-08 13:29:00,
2013-03-08 08:44:00,30.7,27.0,30.48,NNW,329,0.0,2.0,87,0.00,,,0.00,weatherlink.com 1.10,2013-03-08 13:44:00,
2013-03-08 08:59:00,32.2,27.0,30.48,NNW,329,1.0,2.0,82,0.00,,,0.00,weatherlink.com 1.10,2013-03-08 13:59:00,
2013-03-08 09:14:00,33.1,28.0,30.48,NNE,30,0.0,2.0,80,0.00,,,0.00,weatherlink.com 1.10,2013-03-08 14:14:00,
2013-03-08 09:29:00,33.9,28.0,30.49,NE,34,1.0,2.0,78,0.00,,,0.00,weatherlink.com 1.10,2013-03-08 14:29:00,
2013-03-08 09:44:00,35.3,28.0,30.49,NE,48,0.0,2.0,75,0.00,,,0.00,weatherlink.com 1.10,2013-03-08 14:44:00,
2013-03-08 09:59:00,36.3,29.0,30.49,NE,53,1.0,2.0,75,0.00,,,0.00,weatherlink.com 1.10,2013-03-08 14:59:00,
2013-03-08 10:14:00,36.6,28.0,30.49,North,5,1.0,3.0,70,0.00,,,0.00,weatherlink.com 1.10,2013-03-08 15:14:00,
2013-03-08 10:29:00,37.2,27.0,30.49,East,98,1.0,2.0,68,0.00,,,0.00,weatherlink.com 1.10,2013-03-08 15:29:00,
2013-03-08 10:44:00,37.7,28.0,30.49,South,185,0.0,4.0,67,0.00,,,0.00,weatherlink.com 1.10,2013-03-08 15:44:00,
2013-03-08 10:59:00,38.1,27.0,30.48,North,11,2.0,3.0,64,0.00,,,0.00,weatherlink.com 1.10,2013-03-08 15:59:00,
2013-03-08 11:14:00,38.4,27.0,30.48,NNE,26,1.0,3.0,63,0.00,,,0.00,weatherlink.com 1.10,2013-03-08 16:14:00,
2013-03-08 11:29:00,38.7,28.0,30.48,North,5,2.0,3.0,65,0.00,,,0.00,weatherlink.com 1.10,2013-03-08 16:29:00,
2013-03-08 11:44:00,39.3,27.0,30.48,NNE,33,1.0,4.0,61,0.00,,,0.00,weatherlink.com 1.10,2013-03-08 16:44:00,
2013-03-08 11:59:00,39.6,27.0,30.47,North,355,4.0,4.0,60,0.00,,,0.00,weatherlink.com 1.10,2013-03-08 16:59:00,
2013-03-08 12:14:00,39.7,26.0,30.47,North,5,3.0,5.0,59,0.00,,,0.00,weatherlink.com 1.10,2013-03-08 17:14:00,
2013-03-08 12:29:00,40.1,27.0,30.47,North,5,2.0,3.0,59,0.00,,,0.00,weatherlink.com 1.10,2013-03-08 17:29:00,
2013-03-08 12:44:00,40.8,28.0,30.47,NE,51,1.0,4.0,61,0.00,,,0.00,weatherlink.com 1.10,2013-03-08 17:44:00,
2013-03-08 12:59:00,41.1,27.0,30.46,North,5,4.0,4.0,58,0.00,,,0.00,weatherlink.com 1.10,2013-03-08 17:59:00,
2013-03-08 13:14:00,40.8,25.0,30.46,NNW,346,0.0,5.0,54,0.01,,,0.01,weatherlink.com 1.10,2013-03-08 18:14:00,
2013-03-08 13:29:00,41.6,27.0,30.45,West,268,0.0,4.0,57,0.01,,,0.01,weatherlink.com 1.10,2013-03-08 18:29:00,
2013-03-08 13:44:00,41.9,27.0,30.45,NNW,333,2.0,4.0,55,0.01,,,0.01,weatherlink.com 1.10,2013-03-08 18:44:00,
2013-03-08 13:59:00,42.8,28.0,30.45,NNW,348,0.0,3.0,56,0.01,,,0.01,weatherlink.com 1.10,2013-03-08 18:59:00,
2013-03-08 14:14:00,43.6,27.0,30.45,North,9,1.0,4.0,53,0.00,,,0.01,weatherlink.com 1.10,2013-03-08 19:14:00,
2013-03-08 14:30:00,44.0,25.0,30.44,NNE,21,1.0,4.0,48,0.00,,,0.01,weatherlink.com 1.10,2013-03-08 19:30:00,
2013-03-08 14:45:00,44.1,26.0,30.44,North,360,1.0,5.0,49,0.00,,,0.01,weatherlink.com 1.10,2013-03-08 19:45:00,
2013-03-08 15:00:00,44.3,27.0,30.43,North,360,1.0,3.0,50,0.00,,,0.01,weatherlink.com 1.10,2013-03-08 20:00:00,
2013-03-08 15:15:00,44.9,25.0,30.43,North,9,1.0,5.0,45,0.00,,,0.01,weatherlink.com 1.10,2013-03-08 20:15:00,
2013-03-08 15:30:00,45.4,26.0,30.43,NNW,341,1.0,4.0,47,0.00,,,0.01,weatherlink.com 1.10,2013-03-08 20:30:00,
2013-03-08 15:45:00,45.7,27.0,30.42,North,350,4.0,4.0,48,0.00,,,0.01,weatherlink.com 1.10,2013-03-08 20:45:00,
2013-03-08 16:00:00,44.7,26.0,30.42,NW,319,0.0,4.0,49,0.00,,,0.01,weatherlink.com 1.10,2013-03-08 21:00:00,
2013-03-08 16:15:00,45.5,27.0,30.41,NNE,26,0.0,2.0,48,0.00,,,0.01,weatherlink.com 1.10,2013-03-08 21:15:00,
2013-03-08 16:30:00,45.0,25.0,30.40,ENE,65,0.0,5.0,46,0.00,,,0.01,weatherlink.com 1.10,2013-03-08 21:30:00,
2013-03-08 16:45:00,45.6,26.0,30.40,North,5,1.0,3.0,46,0.00,,,0.01,weatherlink.com 1.10,2013-03-08 21:45:00,
2013-03-08 17:00:00,44.9,26.0,30.39,ENE,58,0.0,3.0,47,0.00,,,0.01,weatherlink.com 1.10,2013-03-08 22:00:00,
2013-03-08 17:15:00,45.4,26.0,30.39,NE,36,0.0,1.0,47,0.00,,,0.01,weatherlink.com 1.10,2013-03-08 22:15:00,
2013-03-08 17:30:00,44.7,26.0,30.39,ENE,59,0.0,3.0,49,0.00,,,0.00,weatherlink.com 1.10,2013-03-08 22:30:00,
2013-03-08 17:45:00,43.2,26.0,30.40,ENE,59,0.0,1.0,52,0.00,,,0.00,weatherlink.com 1.10,2013-03-08 22:45:00,
2013-03-08 18:00:00,41.9,27.0,30.40,North,5,0.0,1.0,55,0.00,,,0.00,weatherlink.com 1.10,2013-03-08 23:00:00,
2013-03-08 18:15:00,41.1,27.0,30.40,North,5,0.0,2.0,57,0.00,,,0.00,weatherlink.com 1.10,2013-03-08 23:15:00,
2013-03-08 18:30:00,40.3,26.0,30.40,North,5,0.0,1.0,57,0.00,,,0.00,weatherlink.com 1.10,2013-03-08 23:30:00,
2013-03-08 18:45:00,39.5,26.0,30.40,North,5,0.0,0.0,58,0.00,,,0.00,weatherlink.com 1.10,2013-03-08 23:45:00,
2013-03-08 19:00:00,38.7,26.0,30.39,North,5,0.0,0.0,61,0.00,,,0.00,weatherlink.com 1.10,2013-03-09 00:00:00,
2013-03-08 19:15:00,37.8,26.0,30.41,North,5,0.0,0.0,63,0.00,,,0.00,weatherlink.com 1.10,2013-03-09 00:15:00,
2013-03-08 19:30:00,36.9,27.0,30.41,North,5,0.0,0.0,67,0.00,,,0.00,weatherlink.com 1.10,2013-03-09 00:30:00,
2013-03-08 19:45:00,36.1,26.0,30.42,North,5,0.0,0.0,68,0.00,,,0.00,weatherlink.com 1.10,2013-03-09 00:45:00,
2013-03-08 20:00:00,35.6,27.0,30.42,North,5,0.0,0.0,72,0.00,,,0.00,weatherlink.com 1.10,2013-03-09 01:00:00,
2013-03-08 20:15:00,35.4,28.0,30.42,North,5,0.0,0.0,73,0.00,,,0.00,weatherlink.com 1.10,2013-03-09 01:15:00,
2013-03-08 20:30:00,34.8,28.0,30.42,North,5,0.0,0.0,75,0.00,,,0.00,weatherlink.com 1.10,2013-03-09 01:30:00,
2013-03-08 20:45:00,34.3,28.0,30.42,North,5,0.0,0.0,77,0.00,,,0.00,weatherlink.com 1.10,2013-03-09 01:45:00,
2013-03-08 21:00:00,33.8,27.0,30.43,North,5,0.0,0.0,77,0.00,,,0.00,weatherlink.com 1.10,2013-03-09 02:00:00,
2013-03-08 21:15:00,33.6,28.0,30.43,North,5,0.0,0.0,79,0.00,,,0.00,weatherlink.com 1.10,2013-03-09 02:15:00,
2013-03-08 21:30:00,33.4,28.0,30.42,North,5,0.0,0.0,81,0.00,,,0.00,weatherlink.com 1.10,2013-03-09 02:30:00,
2013-03-08 21:45:00,33.5,28.0,30.42,North,5,0.0,0.0,81,0.00,,,0.00,weatherlink.com 1.10,2013-03-09 02:45:00,
2013-03-08 22:01:00,33.2,28.0,30.41,North,5,0.0,0.0,81,0.00,,,0.00,weatherlink.com 1.10,2013-03-09 03:01:00,
2013-03-08 22:16:00,32.7,28.0,30.41,North,5,0.0,0.0,82,0.00,,,0.00,weatherlink.com 1.10,2013-03-09 03:16:00,
2013-03-08 22:31:00,32.5,28.0,30.40,North,5,0.0,0.0,83,0.00,,,0.00,weatherlink.com 1.10,2013-03-09 03:31:00,
2013-03-08 22:46:00,32.2,28.0,30.40,North,5,0.0,0.0,84,0.00,,,0.00,weatherlink.com 1.10,2013-03-09 03:46:00,
2013-03-08 23:01:00,32.0,28.0,30.40,North,5,0.0,0.0,85,0.00,,,0.00,weatherlink.com 1.10,2013-03-09 04:01:00,
2013-03-08 23:16:00,32.0,28.0,30.40,North,5,0.0,0.0,85,0.00,,,0.00,weatherlink.com 1.10,2013-03-09 04:16:00,
2013-03-08 23:31:00,31.9,28.0,30.41,North,5,0.0,0.0,85,0.00,,,0.00,weatherlink.com 1.10,2013-03-09 04:31:00,
2013-03-08 23:46:00,31.6,28.0,30.40,North,5,0.0,0.0,85,0.00,,,0.00,weatherlink.com 1.10,2013-03-09 04:46:00,